Time;durP1;ratioP1;P1;durP2;ratioP2;P2;SDS_P1;SDS_P2;PMS_P1;PMS_P2;Temp;Humidity;BMP_temperature;BMP_pressure;BME280_temperature;BME280_humidity;BME280_pressure;Samples;Min_cycle;Max_cycle;Signal;HPM_P1;HPM_P2
2022/04/01 17:52:28;;;;;;;29.32;18.85;;;;;;;10.59;78.17;98554.32;1698053;83;21904;-74
2022/04/01 17:54:59;;;;;;;24.60;16.77;;;;;;;10.58;78.13;98548.75;1688817;83;21489;-74
2022/04/01 17:57:25;;;;;;;22.00;15.50;;;;;;;10.59;78.12;98555.66;1688749;84;21097;-73
2022/04/01 18:00:01;;;;;;;24.90;16.35;;;;;;;10.56;78.02;98555.19;1694643;83;21086;-74
2022/04/01 18:02:30;;;;;;;29.02;19.55;;;;;;;10.51;77.86;98559.31;1699702;83;21053;-74
2022/04/01 18:04:59;;;;;;;20.17;14.55;;;;;;;10.48;77.86;98560.47;1701348;83;21055;-74
2022/04/01 18:07:29;;;;;;;18.32;13.05;;;;;;;10.45;77.74;98564.53;1687023;83;21110;-74
2022/04/01 18:10:00;;;;;;;17.65;12.50;;;;;;;10.41;77.75;98566.23;1672171;84;21091;-73
2022/04/01 18:12:32;;;;;;;19.52;12.70;;;;;;;10.39;77.62;98563.08;1693845;83;21626;-74
2022/04/01 18:14:58;;;;;;;19.10;13.05;;;;;;;10.33;77.54;98569.10;1689713;83;21570;-74
2022/04/01 18:17:26;;;;;;;19.02;13.60;;;;;;;10.31;77.56;98562.48;1687756;83;21192;-74
2022/04/01 18:19:56;;;;;;;19.95;13.68;;;;;;;10.29;77.53;98563.32;1680543;84;21315;-74
2022/04/01 18:22:23;;;;;;;19.42;13.58;;;;;;;10.25;77.51;98562.33;1683288;82;21866;-74
2022/04/01 18:28:07;;;;;;;18.02;13.48;;;;;;;10.19;77.41;98562.20;1609274;85;21131;-73
2022/04/01 18:30:40;;;;;;;18.50;12.00;;;;;;;10.15;77.40;98557.23;1685435;83;21047;-73
2022/04/01 18:33:26;;;;;;;20.17;13.43;;;;;;;10.10;77.39;98553.60;1686102;83;21051;-72
2022/04/01 18:35:55;;;;;;;18.67;11.55;;;;;;;10.01;77.42;98555.41;1681776;83;21032;-73
2022/04/01 18:38:27;;;;;;;16.25;10.40;;;;;;;9.91;77.54;98550.31;1695968;83;21102;-73
2022/04/01 18:40:57;;;;;;;20.12;12.70;;;;;;;9.86;77.67;98558.41;1697635;84;28737;-73
2022/04/01 18:43:25;;;;;;;16.23;10.53;;;;;;;9.81;77.75;98557.20;1653304;84;21606;-74
2022/04/01 18:45:55;;;;;;;18.12;11.22;;;;;;;9.76;77.82;98559.97;1680009;83;21085;-74
2022/04/01 18:48:22;;;;;;;17.77;10.95;;;;;;;9.68;77.90;98548.70;1686781;84;21130;-74
2022/04/01 18:50:51;;;;;;;15.88;10.28;;;;;;;9.62;78.03;98551.45;1695034;83;21038;-73
2022/04/01 18:53:19;;;;;;;15.18;9.95;;;;;;;9.61;78.15;98552.55;1689266;83;21562;-73
2022/04/01 18:55:48;;;;;;;15.60;9.85;;;;;;;9.61;78.23;98557.89;1679492;83;21494;-73
2022/04/01 18:58:16;;;;;;;15.25;10.20;;;;;;;9.63;78.23;98554.91;1684989;83;21510;-73
2022/04/01 19:00:44;;;;;;;16.02;10.13;;;;;;;9.61;78.21;98551.77;1693684;83;21910;-73
2022/04/01 19:03:35;;;;;;;17.80;9.43;;;;;;;9.56;78.17;98556.65;1691650;83;21121;-73
2022/04/01 19:06:07;;;;;;;13.75;8.55;;;;;;;9.51;78.24;98558.11;1697813;83;21186;-74
2022/04/01 19:09:06;;;;;;;13.78;8.35;;;;;;;9.49;78.31;98553.61;1694953;84;21018;-73
2022/04/01 19:11:59;;;;;;;13.88;8.38;;;;;;;9.46;78.27;98551.53;1695208;83;21149;-72
2022/04/01 19:14:27;;;;;;;15.18;9.40;;;;;;;9.38;78.28;98561.58;1633580;86;21633;-74
2022/04/01 19:16:54;;;;;;;13.68;8.58;;;;;;;9.28;78.36;98558.57;1655935;86;21126;-73
2022/04/01 19:19:26;;;;;;;12.73;8.28;;;;;;;9.25;78.49;98548.51;1667324;84;21067;-74
2022/04/01 19:22:09;;;;;;;13.75;8.08;;;;;;;9.22;78.63;98538.99;1663543;85;21110;-74
2022/04/01 19:24:34;;;;;;;13.13;8.53;;;;;;;9.20;78.68;98541.15;1668554;84;21106;-75
2022/04/01 19:27:04;;;;;;;14.55;9.15;;;;;;;9.13;78.82;98537.00;1677413;84;21672;-73
2022/04/01 19:29:31;;;;;;;15.20;9.00;;;;;;;9.10;78.98;98547.47;1695653;83;21561;-73
2022/04/01 19:31:59;;;;;;;12.65;8.65;;;;;;;9.13;79.12;98555.66;1673806;84;21050;-74
2022/04/01 19:34:27;;;;;;;15.10;8.83;;;;;;;9.18;79.16;98548.13;1697066;82;21591;-73
2022/04/01 19:36:58;;;;;;;15.55;8.10;;;;;;;9.19;79.08;98547.03;1693502;82;21098;-73
2022/04/01 19:39:25;;;;;;;11.53;7.40;;;;;;;9.15;79.11;98548.16;1693179;82;22491;-72
2022/04/01 19:41:56;;;;;;;14.10;8.20;;;;;;;9.11;79.15;98545.86;1693139;83;21141;-73
2022/04/01 19:44:23;;;;;;;10.78;7.17;;;;;;;9.09;79.24;98557.88;1691965;83;21077;-73
2022/04/01 19:46:50;;;;;;;11.25;7.62;;;;;;;9.07;79.36;98558.70;1690620;84;21074;-72
2022/04/01 19:49:17;;;;;;;12.68;8.80;;;;;;;9.02;79.43;98557.48;1696697;83;21053;-74
2022/04/01 20:04:20;;;;;;;12.90;8.17;;;;;;;9.36;79.74;98555.74;1806823;79;21976;-73
2022/04/01 20:06:48;;;;;;;10.70;7.42;;;;;;;9.34;79.59;98559.23;1813096;79;21537;-72
2022/04/01 20:09:16;;;;;;;11.10;7.17;;;;;;;9.29;79.58;98547.37;1796626;79;21513;-74
2022/04/01 20:11:43;;;;;;;10.82;7.10;;;;;;;9.26;79.63;98534.09;1794226;79;21502;-74
2022/04/01 20:14:10;;;;;;;10.38;6.47;;;;;;;9.23;79.60;98531.23;1815532;79;20959;-73
2022/04/01 20:16:39;;;;;;;10.30;6.85;;;;;;;9.16;79.61;98528.42;1801906;79;21628;-73
2022/04/01 20:19:08;;;;;;;11.10;7.00;;;;;;;9.10;79.72;98525.61;1797769;79;21023;-74
2022/04/01 20:21:37;;;;;;;12.68;8.50;;;;;;;9.06;79.89;98507.33;1815112;79;20975;-72
2022/04/01 20:24:05;;;;;;;11.10;7.85;;;;;;;9.02;79.94;98504.23;1810187;79;21026;-74
2022/04/01 20:26:34;;;;;;;9.88;6.72;;;;;;;8.99;80.03;98490.17;1807523;79;20976;-71
2022/04/01 20:29:01;;;;;;;9.88;7.08;;;;;;;8.97;80.12;98486.47;1815523;79;20991;-73
2022/04/01 20:31:30;;;;;;;10.05;6.70;;;;;;;8.92;80.19;98477.27;1806887;79;20992;-74
2022/04/01 20:34:00;;;;;;;9.68;6.55;;;;;;;8.87;80.30;98468.03;1794333;79;21636;-74
2022/04/01 20:36:27;;;;;;;11.90;7.80;;;;;;;8.83;80.41;98480.36;1813303;79;21070;-72
2022/04/01 20:38:54;;;;;;;12.95;8.10;;;;;;;8.83;80.52;98492.34;1799895;79;20987;-73
2022/04/01 20:41:22;;;;;;;11.50;8.25;;;;;;;8.85;80.65;98489.64;1800169;79;21566;-73
2022/04/01 20:43:50;;;;;;;10.98;6.60;;;;;;;8.91;80.64;98502.29;1799255;79;21054;-73
2022/04/01 20:46:18;;;;;;;10.68;7.20;;;;;;;8.90;80.59;98496.18;1807905;79;21027;-74
2022/04/01 20:48:45;;;;;;;10.35;7.47;;;;;;;8.90;80.61;98482.08;1813874;79;21405;-73
2022/04/01 20:51:12;;;;;;;9.43;7.33;;;;;;;8.91;80.53;98480.98;1813103;79;21030;-73
2022/04/01 20:53:39;;;;;;;9.13;6.60;;;;;;;8.88;80.48;98477.59;1677520;79;9999722;-74
2022/04/01 20:56:06;;;;;;;10.15;6.97;;;;;;;8.86;80.51;98472.57;1788759;79;21137;-74
2022/04/01 20:58:35;;;;;;;11.18;7.80;;;;;;;8.84;80.47;98468.08;1803239;79;21015;-72
2022/04/01 21:01:05;;;;;;;9.33;7.00;;;;;;;8.81;80.43;98458.56;1791494;78;21065;-74
2022/04/01 21:03:32;;;;;;;10.30;7.55;;;;;;;8.75;80.44;98449.09;1790106;78;21050;-73
2022/04/01 21:06:00;;;;;;;10.15;6.95;;;;;;;8.70;80.47;98446.00;1793519;79;20928;-73
2022/04/01 21:08:27;;;;;;;11.48;7.05;;;;;;;8.69;80.61;98438.56;1792254;78;21215;-73
2022/04/01 21:10:55;;;;;;;12.17;7.83;;;;;;;8.65;80.60;98445.57;1664086;79;9999805;-73
2022/04/01 21:13:22;;;;;;;12.20;8.48;;;;;;;8.64;80.62;98453.29;1786352;79;21003;-73
2022/04/01 21:15:50;;;;;;;10.08;7.00;;;;;;;8.60;80.66;98439.55;1787495;79;21023;-73
2022/04/01 21:18:18;;;;;;;10.80;7.22;;;;;;;8.57;80.75;98430.83;1792422;79;21180;-72
2022/04/01 21:20:47;;;;;;;10.15;7.30;;;;;;;8.56;80.83;98430.59;1804503;79;21012;-72
2022/04/01 21:23:16;;;;;;;13.08;8.10;;;;;;;8.53;80.81;98434.62;1789581;78;21002;-73
2022/04/01 21:28:30;;;;;;;10.38;7.75;;;;;;;8.51;80.96;98440.77;1808511;78;21054;-73
2022/04/01 21:30:57;;;;;;;11.68;8.65;;;;;;;8.50;80.96;98455.16;1808330;79;21158;-73
2022/04/01 21:33:27;;;;;;;12.63;8.60;;;;;;;8.50;81.00;98462.36;1809304;79;21016;-73
2022/04/01 21:35:56;;;;;;;12.98;8.68;;;;;;;8.51;81.02;98489.98;1765562;80;21010;-72
2022/04/01 21:38:25;;;;;;;12.05;8.05;;;;;;;8.56;81.13;98529.83;1789197;79;21090;-73
2022/04/01 21:40:54;;;;;;;12.63;9.10;;;;;;;8.67;81.16;98567.69;1789254;79;21030;-73
2022/04/01 21:43:21;;;;;;;13.32;8.68;;;;;;;8.78;81.19;98573.61;1787775;79;22116;-74
2022/04/01 21:45:49;;;;;;;12.07;7.90;;;;;;;8.89;81.21;98538.53;1786151;79;21026;-73
2022/04/01 21:48:17;;;;;;;13.22;8.30;;;;;;;8.97;81.05;98508.31;1790084;78;21008;-74
2022/04/01 21:50:45;;;;;;;9.78;7.28;;;;;;;8.97;80.75;98506.98;1807441;77;20924;-72
2022/04/01 21:53:13;;;;;;;11.95;8.38;;;;;;;8.91;80.63;98503.62;1784590;79;21003;-73
2022/04/01 21:55:41;;;;;;;15.00;10.23;;;;;;;8.88;80.61;98505.54;1805312;79;21635;-73
2022/04/01 21:58:09;;;;;;;13.80;9.68;;;;;;;8.84;80.67;98505.89;1802103;77;21058;-74
2022/04/01 22:00:50;;;;;;;13.58;9.88;;;;;;;8.92;80.77;98524.64;1787815;78;21039;-74
2022/04/01 22:03:17;;;;;;;12.63;8.63;;;;;;;9.03;80.76;98523.89;1801463;77;21113;-74
2022/04/01 22:05:44;;;;;;;14.28;9.05;;;;;;;9.14;80.70;98509.28;1795059;78;20972;-72
2022/04/01 22:08:12;;;;;;;10.75;7.55;;;;;;;9.17;80.46;98493.25;1797408;77;21377;-72
2022/04/01 22:10:41;;;;;;;13.70;9.60;;;;;;;9.11;80.25;98474.46;1787220;79;21034;-71
2022/04/01 22:13:08;;;;;;;13.72;8.68;;;;;;;8.98;80.15;98452.09;1796316;79;21019;-73
2022/04/01 22:15:36;;;;;;;10.55;7.65;;;;;;;8.89;80.23;98448.02;1797281;78;20971;-70
2022/04/01 22:18:04;;;;;;;9.25;6.72;;;;;;;8.77;80.15;98425.64;1788721;78;21527;-72
2022/04/01 22:20:34;;;;;;;8.73;6.60;;;;;;;8.65;80.33;98418.96;1792197;78;21125;-72
2022/04/01 22:23:01;;;;;;;10.82;7.40;;;;;;;8.62;80.47;98396.93;1789773;78;21109;-73
2022/04/01 22:25:28;;;;;;;10.32;6.62;;;;;;;8.57;80.51;98381.05;1793091;77;21085;-72
2022/04/01 22:27:55;;;;;;;8.08;6.00;;;;;;;8.50;80.64;98367.36;1792396;77;21031;-76
2022/04/01 22:30:23;;;;;;;8.98;6.67;;;;;;;8.40;80.79;98335.09;1791383;78;21457;-75
2022/04/01 22:32:51;;;;;;;7.60;5.70;;;;;;;8.31;80.97;98336.84;1790526;78;21129;-73
2022/04/01 22:35:18;;;;;;;7.80;5.12;;;;;;;8.26;81.17;98382.69;1784989;78;20998;-74
2022/04/01 22:37:46;;;;;;;7.80;4.90;;;;;;;8.21;81.36;98380.38;1788512;78;21657;-75
2022/04/01 22:40:15;;;;;;;7.30;4.80;;;;;;;8.20;81.54;98333.59;1789043;77;21070;-74
2022/04/01 22:42:42;;;;;;;6.53;4.70;;;;;;;8.18;81.68;98329.10;1789762;78;21230;-74
2022/04/01 22:45:10;;;;;;;7.33;4.75;;;;;;;8.16;81.77;98333.13;1795111;77;21895;-74
2022/04/01 22:47:38;;;;;;;7.00;4.72;;;;;;;8.15;81.84;98334.23;1798074;77;21062;-74
2022/04/01 22:50:09;;;;;;;6.33;4.22;;;;;;;8.14;81.90;98330.78;1790882;78;21011;-74
2022/04/01 22:52:36;;;;;;;5.72;4.10;;;;;;;8.13;82.00;98329.77;1791123;78;21006;-72
2022/04/01 22:55:04;;;;;;;5.70;4.17;;;;;;;8.10;82.21;98334.34;1789472;78;21093;-72
2022/04/01 22:57:33;;;;;;;5.75;4.15;;;;;;;8.06;82.42;98288.95;1753872;80;21250;-74
2022/04/01 23:00:00;;;;;;;6.72;4.70;;;;;;;8.03;82.51;98300.17;1755701;79;21051;-73
2022/04/01 23:02:27;;;;;;;5.60;3.98;;;;;;;8.02;82.55;98313.73;1763389;79;21094;-74
2022/04/01 23:04:54;;;;;;;6.97;5.12;;;;;;;8.05;82.68;98299.31;1752646;80;21106;-73
2022/04/01 23:07:21;;;;;;;4.97;3.70;;;;;;;8.09;82.73;98286.22;1752058;80;21062;-73
2022/04/01 23:09:49;;;;;;;6.70;3.92;;;;;;;8.08;82.71;98280.66;1730726;80;22120;-74
2022/04/01 23:12:17;;;;;;;5.40;3.90;;;;;;;8.08;82.69;98258.84;1756037;79;21038;-73
2022/04/01 23:14:44;;;;;;;4.83;3.70;;;;;;;8.09;82.71;98235.70;1762805;80;21004;-74
2022/04/01 23:17:13;;;;;;;4.47;3.33;;;;;;;8.07;82.58;98221.39;1756258;80;21494;-76
2022/04/01 23:19:40;;;;;;;5.37;3.65;;;;;;;8.06;82.56;98226.47;1757580;79;21336;-76
2022/04/01 23:22:07;;;;;;;5.33;3.95;;;;;;;8.05;82.56;98226.75;1753368;80;21205;-75
2022/04/01 23:24:34;;;;;;;6.15;4.30;;;;;;;8.05;82.56;98210.25;1749513;80;21406;-76
2022/04/01 23:27:04;;;;;;;5.80;4.25;;;;;;;8.05;82.53;98198.84;1754280;80;21080;-75
2022/04/01 23:29:33;;;;;;;6.42;4.65;;;;;;;8.05;82.54;98196.95;1768234;79;21063;-74
2022/04/01 23:32:00;;;;;;;5.50;4.33;;;;;;;8.07;82.53;98192.69;1762799;80;21569;-75
2022/04/01 23:34:29;;;;;;;5.78;4.30;;;;;;;8.08;82.52;98197.70;1754795;79;21035;-74
2022/04/01 23:36:57;;;;;;;6.50;4.78;;;;;;;8.11;82.51;98201.64;1757668;80;21738;-75
2022/04/01 23:39:25;;;;;;;6.55;4.78;;;;;;;8.13;82.52;98202.92;1758706;80;21067;-73
2022/04/01 23:41:52;;;;;;;5.67;4.25;;;;;;;8.17;82.49;98217.19;1757809;79;21042;-74
2022/04/01 23:44:19;;;;;;;6.05;4.62;;;;;;;8.18;82.38;98222.74;1720079;82;21166;-75
2022/04/01 23:46:47;;;;;;;5.50;4.20;;;;;;;8.18;82.35;98221.41;1727648;80;21272;-73
2022/04/01 23:49:14;;;;;;;5.80;4.40;;;;;;;8.21;82.32;98216.05;1728626;80;21510;-73
2022/04/01 23:51:43;;;;;;;7.28;4.78;;;;;;;8.22;82.23;98212.30;1757626;80;21023;-76
2022/04/01 23:54:10;;;;;;;6.87;5.00;;;;;;;8.23;82.24;98203.25;1755023;79;21059;-73
2022/04/01 23:56:37;;;;;;;6.67;5.08;;;;;;;8.21;82.12;98199.55;1757614;80;21549;-74
2022/04/01 23:59:05;;;;;;;5.78;4.33;;;;;;;8.21;82.11;98190.23;1761299;80;21953;-73
